sensor_id;sensor_type;location;lat;lon;timestamp;temperature;humidity
37702;DHT22;23548;51.196;6.838;2023-07-20T00:00:06;17.60;98.90
37702;DHT22;23548;51.196;6.838;2023-07-20T00:02:32;17.50;99.20
37702;DHT22;23548;51.196;6.838;2023-07-20T00:04:58;17.50;99.60
37702;DHT22;23548;51.196;6.838;2023-07-20T00:07:24;17.50;99.90
37702;DHT22;23548;51.196;6.838;2023-07-20T00:09:50;17.50;99.90
37702;DHT22;23548;51.196;6.838;2023-07-20T00:12:16;17.50;99.90
37702;DHT22;23548;51.196;6.838;2023-07-20T00:14:42;17.50;99.90
37702;DHT22;23548;51.196;6.838;2023-07-20T00:17:07;17.50;99.90
37702;DHT22;23548;51.196;6.838;2023-07-20T00:19:33;17.40;99.90
37702;DHT22;23548;51.196;6.838;2023-07-20T00:22:00;17.40;99.90
37702;DHT22;23548;51.196;6.838;2023-07-20T00:24:27;17.40;99.90
37702;DHT22;23548;51.196;6.838;2023-07-20T00:26:52;17.40;99.90
37702;DHT22;23548;51.196;6.838;2023-07-20T00:29:18;17.40;99.90
37702;DHT22;23548;51.196;6.838;2023-07-20T00:31:44;17.40;99.90
37702;DHT22;23548;51.196;6.838;2023-07-20T00:34:10;17.40;99.90
37702;DHT22;23548;51.196;6.838;2023-07-20T00:36:35;17.40;99.90
37702;DHT22;23548;51.196;6.838;2023-07-20T00:39:02;17.40;99.90
37702;DHT22;23548;51.196;6.838;2023-07-20T00:41:28;17.40;99.90
37702;DHT22;23548;51.196;6.838;2023-07-20T00:43:55;17.30;99.90
37702;DHT22;23548;51.196;6.838;2023-07-20T00:46:23;17.30;99.90
37702;DHT22;23548;51.196;6.838;2023-07-20T00:48:50;17.20;99.90
37702;DHT22;23548;51.196;6.838;2023-07-20T00:51:16;17.20;99.90
37702;DHT22;23548;51.196;6.838;2023-07-20T00:53:41;17.10;99.90
37702;DHT22;23548;51.196;6.838;2023-07-20T00:56:07;17.10;99.90
37702;DHT22;23548;51.196;6.838;2023-07-20T00:58:35;17.20;99.90
37702;DHT22;23548;51.196;6.838;2023-07-20T01:01:00;17.10;99.90
37702;DHT22;23548;51.196;6.838;2023-07-20T01:03:26;17.30;99.90
37702;DHT22;23548;51.196;6.838;2023-07-20T01:08:56;17.40;99.90
37702;DHT22;23548;51.196;6.838;2023-07-20T01:12:06;17.50;99.90
37702;DHT22;23548;51.196;6.838;2023-07-20T01:14:24;17.50;99.90
37702;DHT22;23548;51.196;6.838;2023-07-20T01:16:51;17.50;99.90
37702;DHT22;23548;51.196;6.838;2023-07-20T01:19:17;17.40;99.90
37702;DHT22;23548;51.196;6.838;2023-07-20T01:21:53;17.40;99.90
37702;DHT22;23548;51.196;6.838;2023-07-20T01:32:23;17.40;99.90
37702;DHT22;23548;51.196;6.838;2023-07-20T01:34:52;17.40;99.90
37702;DHT22;23548;51.196;6.838;2023-07-20T01:37:20;17.30;99.90
37702;DHT22;23548;51.196;6.838;2023-07-20T01:39:51;17.30;99.90
37702;DHT22;23548;51.196;6.838;2023-07-20T01:42:17;17.30;99.90
37702;DHT22;23548;51.196;6.838;2023-07-20T01:44:42;17.20;99.90
37702;DHT22;23548;51.196;6.838;2023-07-20T01:47:08;17.20;99.90
37702;DHT22;23548;51.196;6.838;2023-07-20T01:49:34;17.20;99.90
37702;DHT22;23548;51.196;6.838;2023-07-20T01:51:59;17.10;99.90
37702;DHT22;23548;51.196;6.838;2023-07-20T01:54:25;17.00;99.90
37702;DHT22;23548;51.196;6.838;2023-07-20T02:00:13;17.00;99.90
37702;DHT22;23548;51.196;6.838;2023-07-20T02:02:38;17.00;99.90
37702;DHT22;23548;51.196;6.838;2023-07-20T02:05:04;17.00;99.90
37702;DHT22;23548;51.196;6.838;2023-07-20T02:07:30;17.00;99.90
37702;DHT22;23548;51.196;6.838;2023-07-20T02:09:56;16.90;99.90
37702;DHT22;23548;51.196;6.838;2023-07-20T02:12:21;16.80;99.90
37702;DHT22;23548;51.196;6.838;2023-07-20T02:14:47;16.70;99.90
37702;DHT22;23548;51.196;6.838;2023-07-20T02:17:13;16.70;99.90
37702;DHT22;23548;51.196;6.838;2023-07-20T02:19:40;16.60;99.90
37702;DHT22;23548;51.196;6.838;2023-07-20T02:22:06;16.60;99.90
37702;DHT22;23548;51.196;6.838;2023-07-20T02:24:33;16.60;99.90
37702;DHT22;23548;51.196;6.838;2023-07-20T02:26:59;16.60;99.90
37702;DHT22;23548;51.196;6.838;2023-07-20T02:29:25;16.60;99.90
37702;DHT22;23548;51.196;6.838;2023-07-20T02:31:50;16.70;99.90
37702;DHT22;23548;51.196;6.838;2023-07-20T02:34:16;16.70;99.90
37702;DHT22;23548;51.196;6.838;2023-07-20T02:36:42;16.70;99.90
37702;DHT22;23548;51.196;6.838;2023-07-20T02:39:08;16.70;99.90
37702;DHT22;23548;51.196;6.838;2023-07-20T02:41:34;16.80;99.90
37702;DHT22;23548;51.196;6.838;2023-07-20T02:44:00;16.90;99.90
37702;DHT22;23548;51.196;6.838;2023-07-20T02:46:27;16.90;99.90
37702;DHT22;23548;51.196;6.838;2023-07-20T02:48:55;16.90;99.90
37702;DHT22;23548;51.196;6.838;2023-07-20T02:51:21;16.80;99.90
37702;DHT22;23548;51.196;6.838;2023-07-20T02:53:47;16.70;99.90
37702;DHT22;23548;51.196;6.838;2023-07-20T02:56:12;16.70;99.90
37702;DHT22;23548;51.196;6.838;2023-07-20T02:58:41;16.60;99.90
37702;DHT22;23548;51.196;6.838;2023-07-20T03:01:11;16.50;99.90
37702;DHT22;23548;51.196;6.838;2023-07-20T03:03:38;16.40;99.90
37702;DHT22;23548;51.196;6.838;2023-07-20T03:06:07;16.50;99.90
37702;DHT22;23548;51.196;6.838;2023-07-20T03:08:35;16.50;99.90
37702;DHT22;23548;51.196;6.838;2023-07-20T03:11:01;16.50;99.90
37702;DHT22;23548;51.196;6.838;2023-07-20T03:13:27;16.50;99.90
37702;DHT22;23548;51.196;6.838;2023-07-20T03:15:53;16.40;99.90
37702;DHT22;23548;51.196;6.838;2023-07-20T03:18:19;16.40;99.90
37702;DHT22;23548;51.196;6.838;2023-07-20T03:20:45;16.30;99.90
37702;DHT22;23548;51.196;6.838;2023-07-20T03:23:11;16.30;99.90
37702;DHT22;23548;51.196;6.838;2023-07-20T03:25:37;16.40;99.90
37702;DHT22;23548;51.196;6.838;2023-07-20T03:28:04;16.40;99.90
37702;DHT22;23548;51.196;6.838;2023-07-20T03:30:30;16.50;99.90
37702;DHT22;23548;51.196;6.838;2023-07-20T03:32:55;16.40;99.90
37702;DHT22;23548;51.196;6.838;2023-07-20T03:35:21;16.50;99.90
37702;DHT22;23548;51.196;6.838;2023-07-20T03:37:47;16.50;99.90
37702;DHT22;23548;51.196;6.838;2023-07-20T03:40:13;16.50;99.90
37702;DHT22;23548;51.196;6.838;2023-07-20T03:42:40;16.50;99.90
37702;DHT22;23548;51.196;6.838;2023-07-20T03:45:06;16.60;99.90
37702;DHT22;23548;51.196;6.838;2023-07-20T03:47:32;16.60;99.90
37702;DHT22;23548;51.196;6.838;2023-07-20T03:49:57;16.70;99.90
37702;DHT22;23548;51.196;6.838;2023-07-20T03:52:23;16.70;99.90
37702;DHT22;23548;51.196;6.838;2023-07-20T03:54:49;16.70;99.90
37702;DHT22;23548;51.196;6.838;2023-07-20T03:57:17;16.70;99.90
37702;DHT22;23548;51.196;6.838;2023-07-20T03:59:45;16.70;99.90
37702;DHT22;23548;51.196;6.838;2023-07-20T04:02:11;16.70;99.90
37702;DHT22;23548;51.196;6.838;2023-07-20T04:04:37;16.70;99.90
37702;DHT22;23548;51.196;6.838;2023-07-20T04:07:03;16.70;99.90
37702;DHT22;23548;51.196;6.838;2023-07-20T04:09:31;16.70;99.90
37702;DHT22;23548;51.196;6.838;2023-07-20T04:11:57;16.70;99.90
37702;DHT22;23548;51.196;6.838;2023-07-20T04:14:22;16.80;99.90
37702;DHT22;23548;51.196;6.838;2023-07-20T04:16:48;16.90;99.90
37702;DHT22;23548;51.196;6.838;2023-07-20T04:19:14;16.90;99.90
37702;DHT22;23548;51.196;6.838;2023-07-20T04:21:40;16.90;99.90
37702;DHT22;23548;51.196;6.838;2023-07-20T04:24:09;16.90;99.90
37702;DHT22;23548;51.196;6.838;2023-07-20T04:26:34;16.90;99.90
37702;DHT22;23548;51.196;6.838;2023-07-20T04:29:01;16.90;99.90
37702;DHT22;23548;51.196;6.838;2023-07-20T04:31:26;17.00;99.90
37702;DHT22;23548;51.196;6.838;2023-07-20T04:33:52;17.00;99.90
37702;DHT22;23548;51.196;6.838;2023-07-20T04:36:18;17.00;99.90
37702;DHT22;23548;51.196;6.838;2023-07-20T04:38:48;17.00;99.90
37702;DHT22;23548;51.196;6.838;2023-07-20T04:41:14;17.10;99.90
37702;DHT22;23548;51.196;6.838;2023-07-20T04:43:43;17.00;99.90
37702;DHT22;23548;51.196;6.838;2023-07-20T04:46:10;17.00;99.90
37702;DHT22;23548;51.196;6.838;2023-07-20T04:48:36;17.10;99.90
37702;DHT22;23548;51.196;6.838;2023-07-20T04:51:02;17.20;99.90
37702;DHT22;23548;51.196;6.838;2023-07-20T04:53:28;17.20;99.90
37702;DHT22;23548;51.196;6.838;2023-07-20T04:55:54;17.20;99.90
37702;DHT22;23548;51.196;6.838;2023-07-20T04:58:21;17.20;99.90
37702;DHT22;23548;51.196;6.838;2023-07-20T05:00:50;17.20;99.90
37702;DHT22;23548;51.196;6.838;2023-07-20T05:03:17;17.20;99.90
37702;DHT22;23548;51.196;6.838;2023-07-20T05:05:43;17.20;99.90
37702;DHT22;23548;51.196;6.838;2023-07-20T05:08:09;17.40;99.90
37702;DHT22;23548;51.196;6.838;2023-07-20T05:10:35;17.40;99.90
37702;DHT22;23548;51.196;6.838;2023-07-20T05:13:01;17.60;99.90
37702;DHT22;23548;51.196;6.838;2023-07-20T05:15:26;17.70;99.90
37702;DHT22;23548;51.196;6.838;2023-07-20T05:17:52;17.80;99.90
37702;DHT22;23548;51.196;6.838;2023-07-20T05:20:18;17.80;99.90
37702;DHT22;23548;51.196;6.838;2023-07-20T05:22:44;17.70;99.90
37702;DHT22;23548;51.196;6.838;2023-07-20T05:25:10;17.60;99.90
37702;DHT22;23548;51.196;6.838;2023-07-20T05:27:37;17.50;99.90
37702;DHT22;23548;51.196;6.838;2023-07-20T05:30:04;17.50;99.90
37702;DHT22;23548;51.196;6.838;2023-07-20T05:32:30;17.50;99.90
37702;DHT22;23548;51.196;6.838;2023-07-20T05:34:55;17.60;99.90
37702;DHT22;23548;51.196;6.838;2023-07-20T05:37:21;17.60;99.90
37702;DHT22;23548;51.196;6.838;2023-07-20T05:39:47;17.60;99.90
37702;DHT22;23548;51.196;6.838;2023-07-20T05:42:13;17.70;99.90
37702;DHT22;23548;51.196;6.838;2023-07-20T05:44:40;17.80;99.90
37702;DHT22;23548;51.196;6.838;2023-07-20T05:47:06;17.80;99.90
37702;DHT22;23548;51.196;6.838;2023-07-20T05:49:32;17.80;99.90
37702;DHT22;23548;51.196;6.838;2023-07-20T05:51:58;17.90;99.90
37702;DHT22;23548;51.196;6.838;2023-07-20T05:54:24;18.10;99.90
37702;DHT22;23548;51.196;6.838;2023-07-20T05:56:51;18.10;99.90
37702;DHT22;23548;51.196;6.838;2023-07-20T05:59:16;18.20;99.90
37702;DHT22;23548;51.196;6.838;2023-07-20T06:01:43;18.50;99.90
37702;DHT22;23548;51.196;6.838;2023-07-20T06:04:09;18.60;99.90
37702;DHT22;23548;51.196;6.838;2023-07-20T06:06:35;18.60;99.90
37702;DHT22;23548;51.196;6.838;2023-07-20T06:09:01;18.90;99.90
37702;DHT22;23548;51.196;6.838;2023-07-20T06:11:31;19.00;99.90
37702;DHT22;23548;51.196;6.838;2023-07-20T06:13:57;19.10;99.90
37702;DHT22;23548;51.196;6.838;2023-07-20T06:16:23;18.90;99.90
37702;DHT22;23548;51.196;6.838;2023-07-20T06:18:48;18.80;99.90
37702;DHT22;23548;51.196;6.838;2023-07-20T06:21:14;18.90;99.90
37702;DHT22;23548;51.196;6.838;2023-07-20T06:23:40;18.70;99.90
37702;DHT22;23548;51.196;6.838;2023-07-20T06:26:06;18.70;99.90
37702;DHT22;23548;51.196;6.838;2023-07-20T06:28:33;18.70;99.90
37702;DHT22;23548;51.196;6.838;2023-07-20T06:31:00;18.80;99.90
37702;DHT22;23548;51.196;6.838;2023-07-20T06:33:26;18.90;99.90
37702;DHT22;23548;51.196;6.838;2023-07-20T06:35:52;19.00;99.90
37702;DHT22;23548;51.196;6.838;2023-07-20T06:38:18;19.00;99.90
37702;DHT22;23548;51.196;6.838;2023-07-20T06:40:46;19.00;99.90
37702;DHT22;23548;51.196;6.838;2023-07-20T06:43:12;19.10;99.90
37702;DHT22;23548;51.196;6.838;2023-07-20T06:45:38;19.40;99.90
37702;DHT22;23548;51.196;6.838;2023-07-20T06:48:03;19.50;99.90
37702;DHT22;23548;51.196;6.838;2023-07-20T06:50:29;19.40;99.90
37702;DHT22;23548;51.196;6.838;2023-07-20T06:52:55;19.30;99.90
37702;DHT22;23548;51.196;6.838;2023-07-20T06:55:21;19.20;99.90
37702;DHT22;23548;51.196;6.838;2023-07-20T06:57:47;19.30;99.90
37702;DHT22;23548;51.196;6.838;2023-07-20T07:00:13;19.20;99.90
37702;DHT22;23548;51.196;6.838;2023-07-20T07:02:39;19.30;99.90
37702;DHT22;23548;51.196;6.838;2023-07-20T07:05:05;19.40;99.90
37702;DHT22;23548;51.196;6.838;2023-07-20T07:07:31;19.50;99.90
37702;DHT22;23548;51.196;6.838;2023-07-20T07:09:57;19.70;99.50
37702;DHT22;23548;51.196;6.838;2023-07-20T07:12:23;19.70;99.40
37702;DHT22;23548;51.196;6.838;2023-07-20T07:14:49;19.60;99.00
37702;DHT22;23548;51.196;6.838;2023-07-20T07:17:14;19.80;98.40
37702;DHT22;23548;51.196;6.838;2023-07-20T07:19:40;19.50;98.10
37702;DHT22;23548;51.196;6.838;2023-07-20T07:22:06;19.40;98.40
37702;DHT22;23548;51.196;6.838;2023-07-20T07:24:32;19.40;98.60
37702;DHT22;23548;51.196;6.838;2023-07-20T07:27:01;19.30;97.90
37702;DHT22;23548;51.196;6.838;2023-07-20T07:29:27;19.20;98.30
37702;DHT22;23548;51.196;6.838;2023-07-20T07:31:52;19.50;98.40
37702;DHT22;23548;51.196;6.838;2023-07-20T07:34:18;20.00;96.80
37702;DHT22;23548;51.196;6.838;2023-07-20T07:36:44;20.60;95.10
37702;DHT22;23548;51.196;6.838;2023-07-20T07:39:10;21.00;93.90
37702;DHT22;23548;51.196;6.838;2023-07-20T07:41:36;21.10;93.50
37702;DHT22;23548;51.196;6.838;2023-07-20T07:44:02;21.30;93.40
37702;DHT22;23548;51.196;6.838;2023-07-20T07:46:28;21.50;92.60
37702;DHT22;23548;51.196;6.838;2023-07-20T07:48:53;21.70;92.00
37702;DHT22;23548;51.196;6.838;2023-07-20T07:51:19;22.10;90.80
37702;DHT22;23548;51.196;6.838;2023-07-20T07:53:48;22.00;89.40
37702;DHT22;23548;51.196;6.838;2023-07-20T07:56:14;21.50;90.70
37702;DHT22;23548;51.196;6.838;2023-07-20T07:58:40;21.50;90.60
37702;DHT22;23548;51.196;6.838;2023-07-20T08:01:06;20.90;91.60
37702;DHT22;23548;51.196;6.838;2023-07-20T08:03:31;20.30;92.70
37702;DHT22;23548;51.196;6.838;2023-07-20T08:05:57;20.20;93.00
37702;DHT22;23548;51.196;6.838;2023-07-20T08:08:25;19.70;93.80
37702;DHT22;23548;51.196;6.838;2023-07-20T08:10:53;19.50;94.60
37702;DHT22;23548;51.196;6.838;2023-07-20T08:13:20;19.40;95.00
37702;DHT22;23548;51.196;6.838;2023-07-20T08:15:50;19.50;94.90
37702;DHT22;23548;51.196;6.838;2023-07-20T08:18:17;19.70;94.60
37702;DHT22;23548;51.196;6.838;2023-07-20T08:20:46;20.20;93.20
37702;DHT22;23548;51.196;6.838;2023-07-20T08:23:13;20.20;91.40
37702;DHT22;23548;51.196;6.838;2023-07-20T08:25:42;20.30;91.30
37702;DHT22;23548;51.196;6.838;2023-07-20T08:28:13;20.40;91.90
37702;DHT22;23548;51.196;6.838;2023-07-20T08:30:46;20.50;90.20
37702;DHT22;23548;51.196;6.838;2023-07-20T08:33:13;20.60;89.40
37702;DHT22;23548;51.196;6.838;2023-07-20T08:35:40;20.60;89.20
37702;DHT22;23548;51.196;6.838;2023-07-20T08:38:06;20.70;89.60
37702;DHT22;23548;51.196;6.838;2023-07-20T08:40:34;20.90;88.10
37702;DHT22;23548;51.196;6.838;2023-07-20T08:43:00;21.00;86.30
37702;DHT22;23548;51.196;6.838;2023-07-20T08:45:27;21.10;85.30
37702;DHT22;23548;51.196;6.838;2023-07-20T08:47:56;21.30;85.80
37702;DHT22;23548;51.196;6.838;2023-07-20T08:50:22;21.30;83.60
37702;DHT22;23548;51.196;6.838;2023-07-20T08:52:52;21.40;82.30
37702;DHT22;23548;51.196;6.838;2023-07-20T08:55:22;21.30;81.10
37702;DHT22;23548;51.196;6.838;2023-07-20T08:57:50;21.20;79.30
37702;DHT22;23548;51.196;6.838;2023-07-20T09:00:17;21.20;80.90
37702;DHT22;23548;51.196;6.838;2023-07-20T09:02:45;21.20;81.00
37702;DHT22;23548;51.196;6.838;2023-07-20T09:05:11;21.60;80.30
37702;DHT22;23548;51.196;6.838;2023-07-20T09:07:40;22.10;78.20
37702;DHT22;23548;51.196;6.838;2023-07-20T09:10:07;22.10;76.20
37702;DHT22;23548;51.196;6.838;2023-07-20T09:12:40;22.40;77.00
37702;DHT22;23548;51.196;6.838;2023-07-20T09:15:08;22.40;76.60
37702;DHT22;23548;51.196;6.838;2023-07-20T09:17:34;21.90;77.80
37702;DHT22;23548;51.196;6.838;2023-07-20T09:20:04;21.70;79.40
37702;DHT22;23548;51.196;6.838;2023-07-20T09:22:37;21.50;80.10
37702;DHT22;23548;51.196;6.838;2023-07-20T09:27:38;22.10;77.50
37702;DHT22;23548;51.196;6.838;2023-07-20T09:30:05;21.80;78.30
37702;DHT22;23548;51.196;6.838;2023-07-20T09:32:41;21.60;79.20
37702;DHT22;23548;51.196;6.838;2023-07-20T09:35:13;21.60;79.30
37702;DHT22;23548;51.196;6.838;2023-07-20T09:37:40;21.50;79.90
37702;DHT22;23548;51.196;6.838;2023-07-20T09:40:07;21.70;78.00
37702;DHT22;23548;51.196;6.838;2023-07-20T09:42:36;21.60;78.90
37702;DHT22;23548;51.196;6.838;2023-07-20T09:45:02;21.70;76.60
37702;DHT22;23548;51.196;6.838;2023-07-20T09:47:28;21.70;75.50
37702;DHT22;23548;51.196;6.838;2023-07-20T09:50:03;21.80;74.60
37702;DHT22;23548;51.196;6.838;2023-07-20T09:52:30;22.20;71.00
37702;DHT22;23548;51.196;6.838;2023-07-20T09:54:57;22.50;69.60
37702;DHT22;23548;51.196;6.838;2023-07-20T09:57:23;22.50;69.70
37702;DHT22;23548;51.196;6.838;2023-07-20T09:59:49;22.40;69.40
37702;DHT22;23548;51.196;6.838;2023-07-20T10:02:33;22.70;68.60
37702;DHT22;23548;51.196;6.838;2023-07-20T10:05:02;22.80;71.90
37702;DHT22;23548;51.196;6.838;2023-07-20T10:07:29;22.80;72.10
37702;DHT22;23548;51.196;6.838;2023-07-20T10:09:56;22.90;72.30
37702;DHT22;23548;51.196;6.838;2023-07-20T10:12:25;22.90;72.00
37702;DHT22;23548;51.196;6.838;2023-07-20T10:15:04;22.80;70.00
37702;DHT22;23548;51.196;6.838;2023-07-20T10:17:31;22.50;70.50
37702;DHT22;23548;51.196;6.838;2023-07-20T10:20:00;22.30;68.40
37702;DHT22;23548;51.196;6.838;2023-07-20T10:22:31;22.70;67.80
37702;DHT22;23548;51.196;6.838;2023-07-20T10:25:00;22.90;65.90
37702;DHT22;23548;51.196;6.838;2023-07-20T10:27:27;23.20;65.10
37702;DHT22;23548;51.196;6.838;2023-07-20T10:29:53;23.60;63.30
37702;DHT22;23548;51.196;6.838;2023-07-20T10:32:21;24.00;65.00
37702;DHT22;23548;51.196;6.838;2023-07-20T10:34:51;23.60;66.10
37702;DHT22;23548;51.196;6.838;2023-07-20T10:37:52;22.90;67.60
37702;DHT22;23548;51.196;6.838;2023-07-20T10:40:26;22.60;68.30
37702;DHT22;23548;51.196;6.838;2023-07-20T10:43:06;22.20;68.40
37702;DHT22;23548;51.196;6.838;2023-07-20T10:45:37;22.30;68.50
37702;DHT22;23548;51.196;6.838;2023-07-20T10:48:14;22.40;66.30
37702;DHT22;23548;51.196;6.838;2023-07-20T10:50:42;22.60;64.80
37702;DHT22;23548;51.196;6.838;2023-07-20T10:53:18;23.10;63.00
37702;DHT22;23548;51.196;6.838;2023-07-20T10:55:44;23.20;62.10
37702;DHT22;23548;51.196;6.838;2023-07-20T10:58:13;23.30;59.20
37702;DHT22;23548;51.196;6.838;2023-07-20T11:01:02;23.20;60.80
37702;DHT22;23548;51.196;6.838;2023-07-20T11:03:33;23.30;59.70
37702;DHT22;23548;51.196;6.838;2023-07-20T11:05:59;23.70;58.40
37702;DHT22;23548;51.196;6.838;2023-07-20T11:08:41;23.60;59.00
37702;DHT22;23548;51.196;6.838;2023-07-20T11:11:30;23.50;58.50
37702;DHT22;23548;51.196;6.838;2023-07-20T11:14:00;23.80;57.20
37702;DHT22;23548;51.196;6.838;2023-07-20T11:16:43;23.80;58.20
37702;DHT22;23548;51.196;6.838;2023-07-20T11:19:20;23.40;58.70
37702;DHT22;23548;51.196;6.838;2023-07-20T11:21:49;23.30;59.70
37702;DHT22;23548;51.196;6.838;2023-07-20T11:24:15;23.50;59.10
37702;DHT22;23548;51.196;6.838;2023-07-20T11:26:43;23.80;57.40
37702;DHT22;23548;51.196;6.838;2023-07-20T11:29:09;24.40;57.00
37702;DHT22;23548;51.196;6.838;2023-07-20T11:31:39;24.80;55.50
37702;DHT22;23548;51.196;6.838;2023-07-20T11:34:05;24.50;56.10
37702;DHT22;23548;51.196;6.838;2023-07-20T11:36:31;24.80;55.50
37702;DHT22;23548;51.196;6.838;2023-07-20T11:38:59;24.40;56.40
37702;DHT22;23548;51.196;6.838;2023-07-20T11:41:25;25.40;55.30
37702;DHT22;23548;51.196;6.838;2023-07-20T11:43:53;26.20;53.10
37702;DHT22;23548;51.196;6.838;2023-07-20T11:46:19;26.00;53.30
37702;DHT22;23548;51.196;6.838;2023-07-20T11:48:45;25.60;53.90
37702;DHT22;23548;51.196;6.838;2023-07-20T11:51:17;25.70;52.90
37702;DHT22;23548;51.196;6.838;2023-07-20T11:53:47;25.80;53.00
37702;DHT22;23548;51.196;6.838;2023-07-20T11:56:12;24.90;54.60
37702;DHT22;23548;51.196;6.838;2023-07-20T11:58:45;24.70;54.30
37702;DHT22;23548;51.196;6.838;2023-07-20T12:01:15;24.40;54.90
37702;DHT22;23548;51.196;6.838;2023-07-20T12:03:42;24.50;54.50
37702;DHT22;23548;51.196;6.838;2023-07-20T12:06:09;24.60;54.50
37702;DHT22;23548;51.196;6.838;2023-07-20T12:08:38;24.60;54.60
37702;DHT22;23548;51.196;6.838;2023-07-20T12:11:04;24.40;55.70
37702;DHT22;23548;51.196;6.838;2023-07-20T12:16:15;24.20;56.50
37702;DHT22;23548;51.196;6.838;2023-07-20T12:18:42;24.40;55.50
37702;DHT22;23548;51.196;6.838;2023-07-20T12:21:09;24.50;55.20
37702;DHT22;23548;51.196;6.838;2023-07-20T12:23:39;24.80;54.10
37702;DHT22;23548;51.196;6.838;2023-07-20T12:26:09;24.90;53.10
37702;DHT22;23548;51.196;6.838;2023-07-20T12:28:42;24.70;53.60
37702;DHT22;23548;51.196;6.838;2023-07-20T12:31:09;24.30;54.30
37702;DHT22;23548;51.196;6.838;2023-07-20T12:33:36;24.00;55.10
37702;DHT22;23548;51.196;6.838;2023-07-20T12:36:02;23.90;55.50
37702;DHT22;23548;51.196;6.838;2023-07-20T12:38:28;23.80;55.90
37702;DHT22;23548;51.196;6.838;2023-07-20T12:40:56;24.30;54.10
37702;DHT22;23548;51.196;6.838;2023-07-20T12:43:22;24.50;53.30
37702;DHT22;23548;51.196;6.838;2023-07-20T12:45:48;24.70;53.30
37702;DHT22;23548;51.196;6.838;2023-07-20T12:48:13;24.50;53.20
37702;DHT22;23548;51.196;6.838;2023-07-20T12:50:39;24.60;52.80
37702;DHT22;23548;51.196;6.838;2023-07-20T12:53:05;24.80;53.20
37702;DHT22;23548;51.196;6.838;2023-07-20T12:55:31;24.70;53.10
37702;DHT22;23548;51.196;6.838;2023-07-20T12:57:57;25.40;52.70
37702;DHT22;23548;51.196;6.838;2023-07-20T13:00:23;25.30;51.80
37702;DHT22;23548;51.196;6.838;2023-07-20T13:02:49;25.00;52.00
37702;DHT22;23548;51.196;6.838;2023-07-20T13:05:15;25.10;51.70
37702;DHT22;23548;51.196;6.838;2023-07-20T13:07:41;25.40;51.30
37702;DHT22;23548;51.196;6.838;2023-07-20T13:10:08;25.70;51.00
37702;DHT22;23548;51.196;6.838;2023-07-20T13:12:35;25.50;51.70
37702;DHT22;23548;51.196;6.838;2023-07-20T13:15:02;25.70;51.10
37702;DHT22;23548;51.196;6.838;2023-07-20T13:17:32;26.20;50.10
37702;DHT22;23548;51.196;6.838;2023-07-20T13:19:58;25.80;50.70
37702;DHT22;23548;51.196;6.838;2023-07-20T13:22:23;25.50;52.00
37702;DHT22;23548;51.196;6.838;2023-07-20T13:24:49;25.10;52.50
37702;DHT22;23548;51.196;6.838;2023-07-20T13:27:16;24.50;53.70
37702;DHT22;23548;51.196;6.838;2023-07-20T13:29:42;23.90;54.60
37702;DHT22;23548;51.196;6.838;2023-07-20T13:32:08;24.00;54.70
37702;DHT22;23548;51.196;6.838;2023-07-20T13:34:34;24.20;54.70
37702;DHT22;23548;51.196;6.838;2023-07-20T13:37:01;24.10;54.90
37702;DHT22;23548;51.196;6.838;2023-07-20T13:39:27;23.90;55.00
37702;DHT22;23548;51.196;6.838;2023-07-20T13:41:53;23.90;55.20
37702;DHT22;23548;51.196;6.838;2023-07-20T13:44:22;23.90;54.80
37702;DHT22;23548;51.196;6.838;2023-07-20T13:46:49;24.30;54.60
37702;DHT22;23548;51.196;6.838;2023-07-20T13:49:15;24.30;54.30
37702;DHT22;23548;51.196;6.838;2023-07-20T13:51:42;24.10;55.00
37702;DHT22;23548;51.196;6.838;2023-07-20T13:54:08;24.10;54.80
37702;DHT22;23548;51.196;6.838;2023-07-20T13:56:34;24.00;54.70
37702;DHT22;23548;51.196;6.838;2023-07-20T13:59:00;24.10;54.90
37702;DHT22;23548;51.196;6.838;2023-07-20T14:01:26;23.90;55.00
37702;DHT22;23548;51.196;6.838;2023-07-20T14:03:54;23.70;55.20
37702;DHT22;23548;51.196;6.838;2023-07-20T14:06:20;23.70;55.50
37702;DHT22;23548;51.196;6.838;2023-07-20T14:08:46;23.40;55.90
37702;DHT22;23548;51.196;6.838;2023-07-20T14:11:15;23.30;56.60
37702;DHT22;23548;51.196;6.838;2023-07-20T14:13:41;23.20;56.70
37702;DHT22;23548;51.196;6.838;2023-07-20T14:16:07;23.30;56.40
37702;DHT22;23548;51.196;6.838;2023-07-20T14:18:33;23.40;56.40
37702;DHT22;23548;51.196;6.838;2023-07-20T14:20:59;23.50;56.00
37702;DHT22;23548;51.196;6.838;2023-07-20T14:23:25;23.80;55.80
37702;DHT22;23548;51.196;6.838;2023-07-20T14:25:51;23.90;55.10
37702;DHT22;23548;51.196;6.838;2023-07-20T14:28:16;24.10;55.20
37702;DHT22;23548;51.196;6.838;2023-07-20T14:30:42;24.50;54.10
37702;DHT22;23548;51.196;6.838;2023-07-20T14:33:08;25.30;52.60
37702;DHT22;23548;51.196;6.838;2023-07-20T14:35:34;25.70;51.80
37702;DHT22;23548;51.196;6.838;2023-07-20T14:38:00;25.90;51.60
37702;DHT22;23548;51.196;6.838;2023-07-20T14:40:26;26.30;50.50
37702;DHT22;23548;51.196;6.838;2023-07-20T14:42:52;26.80;50.00
37702;DHT22;23548;51.196;6.838;2023-07-20T14:45:18;27.10;49.70
37702;DHT22;23548;51.196;6.838;2023-07-20T14:47:44;27.00;49.00
37702;DHT22;23548;51.196;6.838;2023-07-20T14:50:11;28.10;47.90
37702;DHT22;23548;51.196;6.838;2023-07-20T14:52:37;27.80;47.50
37702;DHT22;23548;51.196;6.838;2023-07-20T14:55:03;30.50;44.60
37702;DHT22;23548;51.196;6.838;2023-07-20T14:57:29;31.90;42.40
37702;DHT22;23548;51.196;6.838;2023-07-20T14:59:54;32.60;41.60
37702;DHT22;23548;51.196;6.838;2023-07-20T15:02:20;32.90;40.40
37702;DHT22;23548;51.196;6.838;2023-07-20T15:04:50;33.70;39.20
37702;DHT22;23548;51.196;6.838;2023-07-20T15:07:20;32.90;39.20
37702;DHT22;23548;51.196;6.838;2023-07-20T15:09:49;31.80;40.00
37702;DHT22;23548;51.196;6.838;2023-07-20T15:12:15;31.60;41.20
37702;DHT22;23548;51.196;6.838;2023-07-20T15:14:42;30.20;42.10
37702;DHT22;23548;51.196;6.838;2023-07-20T15:17:11;28.60;44.70
37702;DHT22;23548;51.196;6.838;2023-07-20T15:19:38;27.60;46.30
37702;DHT22;23548;51.196;6.838;2023-07-20T15:22:04;27.70;46.40
37702;DHT22;23548;51.196;6.838;2023-07-20T15:24:30;27.50;45.80
37702;DHT22;23548;51.196;6.838;2023-07-20T15:26:56;26.80;47.40
37702;DHT22;23548;51.196;6.838;2023-07-20T15:29:23;26.90;47.40
37702;DHT22;23548;51.196;6.838;2023-07-20T15:31:49;26.70;48.00
37702;DHT22;23548;51.196;6.838;2023-07-20T15:34:15;26.60;48.00
37702;DHT22;23548;51.196;6.838;2023-07-20T15:36:41;26.60;48.00
37702;DHT22;23548;51.196;6.838;2023-07-20T15:39:08;26.60;48.60
37702;DHT22;23548;51.196;6.838;2023-07-20T15:41:33;26.40;49.00
37702;DHT22;23548;51.196;6.838;2023-07-20T15:44:00;26.40;49.20
37702;DHT22;23548;51.196;6.838;2023-07-20T15:48:52;29.30;43.90
37702;DHT22;23548;51.196;6.838;2023-07-20T15:51:17;30.60;41.50